Time;durP1;ratioP1;P1;durP2;ratioP2;P2;SDS_P1;SDS_P2;PMS_P1;PMS_P2;Temp;Humidity;BMP_temperature;BMP_pressure;BME280_temperature;BME280_humidity;BME280_pressure;Samples;Min_cycle;Max_cycle;Signal;HPM_P1;HPM_P2
2023/09/24 00:01:04;;;;;;;3.58;2.90;;;11.20;99.90;;;;;;4969985;28;20663;-80
2023/09/24 00:03:31;;;;;;;6.07;3.42;;;11.10;99.90;;;;;;4970544;28;20042;-80
2023/09/24 00:06:04;;;;;;;7.35;3.25;;;11.20;99.90;;;;;;4988018;28;20130;-80
2023/09/24 00:08:30;;;;;;;5.32;3.35;;;11.10;99.90;;;;;;4969679;28;20529;-79
2023/09/24 00:10:56;;;;;;;8.88;3.58;;;11.10;99.90;;;;;;4986230;28;20042;-80
2023/09/24 00:13:22;;;;;;;5.90;3.60;;;11.10;99.90;;;;;;4986878;28;20050;-79
2023/09/24 00:15:49;;;;;;;4.60;3.47;;;11.10;99.90;;;;;;4987734;28;20047;-80
2023/09/24 00:18:19;;;;;;;5.47;3.83;;;11.20;99.90;;;;;;4986066;28;20057;-79
2023/09/24 00:20:45;;;;;;;5.97;3.55;;;11.20;99.90;;;;;;4987052;28;20124;-79
2023/09/24 00:23:11;;;;;;;4.80;3.67;;;11.20;99.90;;;;;;4970026;28;20050;-79
2023/09/24 00:25:38;;;;;;;7.55;4.10;;;11.10;99.90;;;;;;4986600;28;20528;-79
2023/09/24 00:28:04;;;;;;;4.93;4.00;;;11.10;99.90;;;;;;4969635;28;20068;-79
2023/09/24 00:30:33;;;;;;;8.30;4.35;;;11.10;99.90;;;;;;4985018;28;20065;-80
2023/09/24 00:33:00;;;;;;;9.15;4.53;;;11.20;99.90;;;;;;4987819;28;20050;-80
2023/09/24 00:35:26;;;;;;;7.68;4.20;;;11.20;99.90;;;;;;4986958;28;20196;-80
2023/09/24 00:37:52;;;;;;;8.07;4.82;;;11.20;99.90;;;;;;4990213;28;20121;-80
2023/09/24 00:40:19;;;;;;;7.90;4.75;;;11.20;99.90;;;;;;4987099;28;20573;-80
2023/09/24 00:42:45;;;;;;;6.38;4.53;;;11.20;99.90;;;;;;4970522;28;20042;-79
2023/09/24 00:45:11;;;;;;;7.68;4.68;;;11.20;99.90;;;;;;4986542;28;20097;-80
2023/09/24 00:47:41;;;;;;;16.10;5.30;;;11.20;99.90;;;;;;4987197;28;20812;-80
2023/09/24 00:50:08;;;;;;;10.35;4.88;;;11.10;99.90;;;;;;4986836;28;20502;-80
2023/09/24 00:52:34;;;;;;;8.90;4.80;;;11.20;99.90;;;;;;4987192;28;20045;-80
2023/09/24 00:55:05;;;;;;;10.40;4.82;;;11.10;99.90;;;;;;4986486;28;20077;-80
2023/09/24 00:57:32;;;;;;;8.30;5.18;;;11.10;99.90;;;;;;4987336;28;20053;-80
2023/09/24 00:59:59;;;;;;;6.78;4.93;;;11.20;99.90;;;;;;4988927;28;20425;-80
2023/09/24 01:02:25;;;;;;;7.93;4.20;;;11.10;99.90;;;;;;4974612;28;20720;-80
2023/09/24 01:04:53;;;;;;;8.55;4.25;;;11.10;99.90;;;;;;4973696;28;20050;-80
2023/09/24 01:07:23;;;;;;;5.95;3.78;;;11.10;99.90;;;;;;4990788;28;20054;-81
2023/09/24 01:09:49;;;;;;;5.15;3.90;;;11.10;99.90;;;;;;4973003;28;20061;-80
2023/09/24 01:12:29;;;;;;;8.18;4.70;;;11.00;99.90;;;;;;4991171;28;20046;-81
2023/09/24 01:14:57;;;;;;;8.68;4.43;;;11.00;99.90;;;;;;4971161;28;20134;-80
2023/09/24 01:17:24;;;;;;;6.25;4.30;;;11.10;99.90;;;;;;4988542;28;20054;-80
2023/09/24 01:19:54;;;;;;;6.22;4.30;;;11.10;99.90;;;;;;4989611;28;20065;-80
2023/09/24 01:22:20;;;;;;;8.15;4.65;;;11.10;99.90;;;;;;4991252;28;20085;-80
2023/09/24 01:24:46;;;;;;;9.02;4.57;;;11.10;99.90;;;;;;4972484;28;20050;-80
2023/09/24 01:27:11;;;;;;;7.50;4.25;;;11.10;99.90;;;;;;4991613;28;20081;-80
2023/09/24 01:29:37;;;;;;;9.00;4.97;;;11.10;99.90;;;;;;4972711;28;20082;-80
2023/09/24 01:32:06;;;;;;;7.28;4.53;;;11.10;99.90;;;;;;4973296;28;20116;-80
2023/09/24 01:34:32;;;;;;;8.75;5.28;;;11.00;99.90;;;;;;4991051;28;20126;-80
2023/09/24 01:36:58;;;;;;;29.98;6.15;;;11.00;99.90;;;;;;4990446;28;20104;-81
2023/09/24 01:39:27;;;;;;;21.88;5.50;;;11.00;99.90;;;;;;4972188;28;20748;-80
2023/09/24 01:41:53;;;;;;;8.57;5.05;;;11.00;99.90;;;;;;4989903;28;20100;-80
2023/09/24 01:44:21;;;;;;;10.23;4.80;;;10.90;99.90;;;;;;4972687;28;20715;-80
2023/09/24 01:46:47;;;;;;;8.77;5.63;;;10.90;99.90;;;;;;4973038;28;20081;-80
2023/09/24 01:49:13;;;;;;;7.95;5.35;;;10.90;99.90;;;;;;4977447;28;20851;-80
2023/09/24 01:51:39;;;;;;;9.93;5.50;;;10.90;99.90;;;;;;4974145;28;20137;-81
2023/09/24 01:54:07;;;;;;;8.57;5.70;;;10.90;99.90;;;;;;4973560;28;20489;-80
2023/09/24 01:56:34;;;;;;;7.60;5.95;;;10.90;99.90;;;;;;4973957;28;20046;-80
2023/09/24 01:59:01;;;;;;;9.82;6.00;;;10.80;99.90;;;;;;4972443;28;20201;-80
2023/09/24 02:01:28;;;;;;;7.05;5.78;;;10.90;99.90;;;;;;4989914;28;20540;-80
2023/09/24 02:03:59;;;;;;;12.38;6.85;;;10.80;99.90;;;;;;4973177;28;20422;-81
2023/09/24 02:06:27;;;;;;;7.20;5.68;;;10.80;99.90;;;;;;4990220;28;20453;-81
2023/09/24 02:08:53;;;;;;;15.10;7.00;;;10.80;99.90;;;;;;4971962;28;20046;-80
2023/09/24 02:11:19;;;;;;;27.25;7.18;;;11.00;99.90;;;;;;4989069;28;20405;-81
2023/09/24 02:13:45;;;;;;;35.75;6.93;;;10.80;99.90;;;;;;4990697;28;20104;-81
2023/09/24 02:16:12;;;;;;;115.50;11.95;;;10.90;99.90;;;;;;4972329;28;20038;-80
2023/09/24 02:18:38;;;;;;;43.17;7.95;;;10.90;99.90;;;;;;4971273;28;20046;-81
2023/09/24 02:21:15;;;;;;;45.38;9.25;;;10.90;99.90;;;;;;4990327;28;20058;-81
2023/09/24 02:23:41;;;;;;;99.72;9.98;;;10.90;99.90;;;;;;4972382;28;20060;-81
2023/09/24 02:26:08;;;;;;;106.38;11.65;;;10.80;99.90;;;;;;4989886;28;20050;-81
2023/09/24 02:28:38;;;;;;;86.07;8.57;;;10.80;99.90;;;;;;4989452;28;20104;-81
2023/09/24 02:31:05;;;;;;;68.43;8.35;;;10.80;99.90;;;;;;4986912;28;20053;-81
2023/09/24 02:33:31;;;;;;;82.80;9.35;;;10.80;99.90;;;;;;4976946;28;20053;-81
2023/09/24 02:35:57;;;;;;;105.07;12.23;;;10.80;99.90;;;;;;4987437;28;20039;-80
2023/09/24 02:38:24;;;;;;;27.75;7.30;;;10.80;99.90;;;;;;4968775;28;20125;-80
2023/09/24 02:40:50;;;;;;;46.00;8.07;;;10.70;99.90;;;;;;4985477;28;20046;-80
2023/09/24 02:43:16;;;;;;;26.20;6.32;;;10.70;99.90;;;;;;4989214;28;20050;-80
2023/09/24 02:45:42;;;;;;;45.13;8.82;;;10.70;99.90;;;;;;4989542;28;20097;-80
2023/09/24 02:48:07;;;;;;;25.85;7.20;;;10.70;99.90;;;;;;4990827;28;20051;-80
2023/09/24 02:50:33;;;;;;;29.13;7.45;;;10.70;99.90;;;;;;4988951;28;20045;-80
2023/09/24 02:53:04;;;;;;;16.08;7.13;;;10.70;99.90;;;;;;4971678;28;20857;-80
2023/09/24 02:55:30;;;;;;;11.95;6.32;;;10.60;99.90;;;;;;4981804;28;20046;-80
2023/09/24 02:57:56;;;;;;;8.82;5.97;;;10.60;99.90;;;;;;4990063;28;20035;-81
2023/09/24 03:00:33;;;;;;;8.48;6.07;;;10.60;99.90;;;;;;4970443;28;20102;-80
2023/09/24 03:03:00;;;;;;;9.48;5.97;;;10.50;99.90;;;;;;4970504;28;20125;-79
2023/09/24 03:05:26;;;;;;;9.23;6.80;;;10.50;99.90;;;;;;4989386;28;20051;-80
2023/09/24 03:07:53;;;;;;;10.20;6.75;;;10.40;99.90;;;;;;4989553;28;20092;-80
2023/09/24 03:10:20;;;;;;;8.13;5.97;;;10.40;99.90;;;;;;4970927;28;20130;-81
2023/09/24 03:12:46;;;;;;;9.93;6.45;;;10.40;99.90;;;;;;4989523;28;20058;-80
2023/09/24 03:15:13;;;;;;;11.27;6.38;;;10.30;99.90;;;;;;4970225;28;20111;-80
2023/09/24 03:17:40;;;;;;;10.57;6.20;;;10.30;99.90;;;;;;4988472;28;20074;-79
2023/09/24 03:20:19;;;;;;;12.13;6.25;;;10.30;99.90;;;;;;4987225;28;20096;-80
2023/09/24 03:22:53;;;;;;;8.80;6.13;;;10.30;99.90;;;;;;4988714;28;20487;-81
2023/09/24 03:25:23;;;;;;;11.95;5.93;;;10.20;99.90;;;;;;4987594;28;20088;-80
2023/09/24 03:27:50;;;;;;;10.25;6.38;;;10.20;99.90;;;;;;4971115;28;20074;-80
2023/09/24 03:30:20;;;;;;;9.57;6.20;;;10.20;99.90;;;;;;4971345;28;20058;-80
2023/09/24 03:32:50;;;;;;;7.70;5.90;;;10.20;99.90;;;;;;4987083;28;20129;-80
2023/09/24 03:35:19;;;;;;;7.15;5.78;;;10.20;99.90;;;;;;4988466;28;20494;-81
2023/09/24 03:37:45;;;;;;;7.85;5.57;;;10.10;99.90;;;;;;4954460;28;20046;-81
2023/09/24 03:40:14;;;;;;;13.38;5.63;;;10.10;99.90;;;;;;4988004;28;20053;-80
2023/09/24 03:42:40;;;;;;;11.32;6.00;;;10.10;99.90;;;;;;4989201;28;20085;-81
2023/09/24 03:45:09;;;;;;;12.43;6.03;;;10.00;99.90;;;;;;4987006;28;20039;-80
2023/09/24 03:47:36;;;;;;;11.13;6.20;;;10.00;99.90;;;;;;4987198;28;20538;-80
2023/09/24 03:50:03;;;;;;;8.88;5.70;;;10.00;99.90;;;;;;4983600;28;20125;-80
2023/09/24 03:52:30;;;;;;;6.72;5.57;;;10.00;99.90;;;;;;4988466;28;20088;-81
2023/09/24 03:55:02;;;;;;;11.20;6.72;;;9.90;99.90;;;;;;4983685;28;20057;-80
2023/09/24 03:57:29;;;;;;;8.88;6.55;;;9.90;99.90;;;;;;4984445;28;20053;-80
2023/09/24 03:59:55;;;;;;;12.80;6.25;;;9.90;99.90;;;;;;4974324;28;20061;-80
2023/09/24 04:02:22;;;;;;;8.77;6.30;;;9.90;99.90;;;;;;4987884;28;20104;-82
2023/09/24 04:04:48;;;;;;;11.25;6.05;;;10.50;99.90;;;;;;4986113;28;20066;-81
2023/09/24 04:07:15;;;;;;;6.90;6.07;;;9.80;99.90;;;;;;4986334;28;20042;-82
2023/09/24 04:09:43;;;;;;;9.52;6.35;;;9.80;99.90;;;;;;4961384;28;20187;-82
2023/09/24 04:12:13;;;;;;;10.57;6.00;;;9.80;99.90;;;;;;4987964;28;20128;-81
2023/09/24 04:14:39;;;;;;;8.00;6.85;;;9.80;99.90;;;;;;4987232;28;20532;-81
2023/09/24 04:17:05;;;;;;;8.63;7.00;;;9.70;99.90;;;;;;4968954;28;20065;-81
2023/09/24 04:19:32;;;;;;;8.60;6.55;;;9.70;99.90;;;;;;4969311;28;20042;-82
2023/09/24 04:21:57;;;;;;;8.73;7.28;;;9.70;99.90;;;;;;4988058;28;20144;-81
2023/09/24 04:24:24;;;;;;;12.60;7.00;;;9.70;99.90;;;;;;4987987;28;20094;-79
2023/09/24 04:26:54;;;;;;;11.48;6.53;;;9.70;99.90;;;;;;4985871;28;20057;-81
2023/09/24 04:29:20;;;;;;;8.48;6.55;;;9.70;99.90;;;;;;4971079;28;20038;-81
2023/09/24 04:31:45;;;;;;;11.38;7.90;;;9.60;99.90;;;;;;4988185;28;20403;-81
2023/09/24 04:34:12;;;;;;;15.45;7.28;;;9.60;99.90;;;;;;4986945;28;20035;-81
2023/09/24 04:36:42;;;;;;;12.60;6.97;;;9.60;99.90;;;;;;4986255;28;20042;-82
2023/09/24 04:39:11;;;;;;;15.93;7.25;;;9.60;99.90;;;;;;4985683;28;20129;-81
2023/09/24 04:41:43;;;;;;;16.13;7.40;;;9.60;99.90;;;;;;4986908;28;20129;-81
2023/09/24 04:44:08;;;;;;;13.57;7.80;;;9.60;99.90;;;;;;4969379;28;20093;-80
2023/09/24 04:46:35;;;;;;;11.05;6.90;;;9.60;99.90;;;;;;4987427;28;20077;-81
2023/09/24 04:49:04;;;;;;;11.05;7.28;;;9.60;99.90;;;;;;4987301;28;20461;-82
2023/09/24 04:51:32;;;;;;;16.90;7.30;;;9.60;99.90;;;;;;4986750;28;20074;-80
2023/09/24 04:53:58;;;;;;;15.30;7.65;;;9.50;99.90;;;;;;4986840;28;20121;-80
2023/09/24 04:56:24;;;;;;;13.48;8.70;;;9.50;99.90;;;;;;4985709;28;20083;-80
2023/09/24 04:58:50;;;;;;;13.05;9.00;;;9.50;99.90;;;;;;4986717;28;20133;-80
2023/09/24 05:01:15;;;;;;;17.52;9.02;;;9.50;99.90;;;;;;4987766;28;20046;-80
2023/09/24 05:03:42;;;;;;;14.48;8.63;;;9.50;99.90;;;;;;4987946;28;20112;-80
2023/09/24 05:06:07;;;;;;;12.75;8.77;;;9.50;99.90;;;;;;4987890;28;20473;-81
2023/09/24 05:08:34;;;;;;;13.00;7.85;;;9.50;99.90;;;;;;4987254;28;20046;-80
2023/09/24 05:11:04;;;;;;;14.80;8.70;;;9.40;99.90;;;;;;4987847;28;20046;-80
2023/09/24 05:13:30;;;;;;;14.43;8.85;;;9.40;99.90;;;;;;4999685;28;20051;-80
2023/09/24 05:15:59;;;;;;;15.20;9.63;;;9.40;99.90;;;;;;4968829;28;20081;-81
2023/09/24 05:18:26;;;;;;;14.77;9.35;;;9.40;99.90;;;;;;4987877;28;20093;-80
2023/09/24 05:20:52;;;;;;;14.90;9.00;;;9.40;99.90;;;;;;4986083;28;20042;-81
2023/09/24 05:23:23;;;;;;;17.05;9.10;;;9.40;99.90;;;;;;4986793;28;20532;-81
2023/09/24 05:25:52;;;;;;;16.73;9.65;;;9.40;99.90;;;;;;4967890;28;20379;-80
2023/09/24 05:28:18;;;;;;;16.38;9.05;;;9.40;99.90;;;;;;4987578;28;20043;-81
2023/09/24 05:30:54;;;;;;;12.55;9.00;;;9.40;99.90;;;;;;4969861;28;20054;-82
2023/09/24 05:33:20;;;;;;;16.95;9.70;;;9.40;99.90;;;;;;4969985;28;20749;-81
2023/09/24 05:35:52;;;;;;;18.05;9.68;;;9.40;99.90;;;;;;4986663;28;20049;-80
2023/09/24 05:38:26;;;;;;;17.40;9.85;;;9.40;99.90;;;;;;4978472;28;20106;-81
2023/09/24 05:40:52;;;;;;;13.32;8.50;;;9.60;99.90;;;;;;4985524;28;20142;-80
2023/09/24 05:43:18;;;;;;;13.95;9.40;;;9.50;99.90;;;;;;4978244;28;20688;-81
2023/09/24 05:45:54;;;;;;;15.93;9.13;;;9.40;99.90;;;;;;4966286;28;20062;-81
2023/09/24 05:48:20;;;;;;;16.17;9.55;;;9.60;99.90;;;;;;4974236;28;20056;-80
2023/09/24 05:50:46;;;;;;;16.30;9.63;;;9.50;99.90;;;;;;4988177;28;20409;-80
2023/09/24 05:53:13;;;;;;;17.50;10.52;;;9.50;99.90;;;;;;4973709;28;20057;-81
2023/09/24 05:55:39;;;;;;;11.43;8.60;;;9.50;99.90;;;;;;4973178;28;20190;-81
2023/09/24 05:58:06;;;;;;;14.52;9.10;;;9.40;99.90;;;;;;4972197;28;20173;-81
2023/09/24 06:00:36;;;;;;;16.20;9.63;;;9.50;99.90;;;;;;4971547;28;20054;-82
2023/09/24 06:03:02;;;;;;;15.65;9.23;;;9.50;99.90;;;;;;4981080;28;20039;-82
2023/09/24 06:05:30;;;;;;;13.32;9.40;;;9.50;99.90;;;;;;4990939;28;20104;-81
2023/09/24 06:07:59;;;;;;;14.52;9.38;;;9.60;99.90;;;;;;4973522;28;20402;-81
2023/09/24 06:10:34;;;;;;;18.60;9.45;;;9.60;99.90;;;;;;4989962;28;20053;-81
2023/09/24 06:13:03;;;;;;;13.07;8.82;;;9.80;99.90;;;;;;4989908;28;20121;-81
2023/09/24 06:15:29;;;;;;;12.23;7.95;;;9.70;99.90;;;;;;4989935;28;20046;-83
2023/09/24 06:17:54;;;;;;;13.90;9.32;;;9.70;99.90;;;;;;4976383;28;20054;-83
2023/09/24 06:20:20;;;;;;;18.65;9.57;;;9.70;99.90;;;;;;4970687;28;20055;-80
2023/09/24 06:22:57;;;;;;;16.90;10.48;;;9.80;99.90;;;;;;4970980;28;20475;-81
2023/09/24 06:25:29;;;;;;;15.55;9.50;;;9.80;99.90;;;;;;4971237;28;20054;-81
2023/09/24 06:27:57;;;;;;;24.92;10.60;;;9.90;99.90;;;;;;4989117;28;20062;-82
2023/09/24 06:30:23;;;;;;;16.77;10.27;;;10.00;99.90;;;;;;4989593;28;20129;-82
2023/09/24 06:32:51;;;;;;;14.65;10.15;;;10.50;99.90;;;;;;4987420;28;20567;-82
2023/09/24 06:35:16;;;;;;;18.45;11.05;;;10.10;99.90;;;;;;4977122;28;20408;-82
2023/09/24 06:37:42;;;;;;;16.63;10.25;;;10.20;99.90;;;;;;4989462;28;20050;-82
2023/09/24 06:40:11;;;;;;;17.20;11.15;;;10.30;99.90;;;;;;4989104;28;20046;-82
2023/09/24 06:42:37;;;;;;;17.63;11.15;;;10.40;99.90;;;;;;4971780;28;20046;-82
2023/09/24 06:45:04;;;;;;;19.50;11.35;;;10.50;99.90;;;;;;4989408;28;20112;-82
2023/09/24 06:47:32;;;;;;;18.60;10.90;;;10.60;99.90;;;;;;4971367;28;20141;-81
2023/09/24 06:49:58;;;;;;;19.55;11.65;;;10.70;99.90;;;;;;4971845;28;20042;-83
2023/09/24 06:52:23;;;;;;;16.60;11.13;;;10.80;99.90;;;;;;4989429;28;20089;-82
2023/09/24 06:54:49;;;;;;;22.08;11.77;;;10.80;99.90;;;;;;4988951;28;20106;-82
2023/09/24 06:57:15;;;;;;;17.58;10.93;;;10.90;99.90;;;;;;4971465;28;20077;-81
2023/09/24 06:59:40;;;;;;;20.60;11.43;;;11.00;99.90;;;;;;4971794;28;20054;-80
2023/09/24 07:02:06;;;;;;;22.70;12.57;;;11.10;99.90;;;;;;4989151;28;20050;-82
2023/09/24 07:04:32;;;;;;;20.48;12.00;;;11.20;99.90;;;;;;4989085;28;20050;-81
2023/09/24 07:06:57;;;;;;;23.35;11.80;;;11.30;99.90;;;;;;4989226;28;20050;-80
2023/09/24 07:09:23;;;;;;;15.20;10.65;;;11.30;99.90;;;;;;4955040;28;20819;-82
2023/09/24 07:11:51;;;;;;;15.20;11.35;;;11.30;99.90;;;;;;4955805;28;20058;-82
2023/09/24 07:14:20;;;;;;;16.27;10.77;;;11.40;99.90;;;;;;4971431;28;20184;-81
2023/09/24 07:16:46;;;;;;;17.95;10.52;;;11.40;99.90;;;;;;4989321;28;20172;-82
2023/09/24 07:19:13;;;;;;;15.65;10.55;;;11.90;99.90;;;;;;4971457;28;20609;-82
2023/09/24 07:21:41;;;;;;;15.10;9.50;;;11.50;99.90;;;;;;4971273;28;20054;-82
2023/09/24 07:24:07;;;;;;;16.70;10.13;;;11.50;99.90;;;;;;4988868;28;20118;-82
2023/09/24 07:26:32;;;;;;;13.32;9.85;;;11.60;99.90;;;;;;4986242;28;20145;-82
2023/09/24 07:29:00;;;;;;;14.57;10.15;;;11.60;99.90;;;;;;5005691;28;20042;-82
2023/09/24 07:31:26;;;;;;;13.85;9.93;;;11.90;99.90;;;;;;4990798;28;20096;-83
2023/09/24 07:33:58;;;;;;;12.93;9.93;;;11.70;99.90;;;;;;5008592;28;20157;-83
2023/09/24 07:36:24;;;;;;;17.65;10.27;;;11.90;99.90;;;;;;5008402;28;20038;-83
2023/09/24 07:38:52;;;;;;;13.90;10.13;;;12.00;99.90;;;;;;5007276;28;20046;-84
2023/09/24 07:41:20;;;;;;;17.85;9.80;;;12.00;99.90;;;;;;4987025;28;20124;-84
2023/09/24 07:43:49;;;;;;;14.77;9.48;;;12.10;99.90;;;;;;4969579;28;20054;-83
2023/09/24 07:46:15;;;;;;;14.73;9.00;;;12.20;99.90;;;;;;4987407;28;20093;-83
2023/09/24 07:48:43;;;;;;;11.82;9.70;;;12.20;99.90;;;;;;4987077;28;20061;-82
2023/09/24 07:51:11;;;;;;;15.20;9.05;;;12.30;99.90;;;;;;4987123;28;20046;-83
2023/09/24 07:53:37;;;;;;;12.88;8.85;;;12.40;99.90;;;;;;4987858;28;20508;-83
2023/09/24 07:56:08;;;;;;;11.68;9.02;;;12.40;99.90;;;;;;4988227;28;20049;-83
2023/09/24 07:58:42;;;;;;;11.90;9.23;;;12.50;99.90;;;;;;4987854;28;20077;-83
2023/09/24 08:01:15;;;;;;;14.60;9.80;;;12.60;99.90;;;;;;4986838;28;20647;-83
2023/09/24 08:03:45;;;;;;;12.30;9.07;;;12.70;99.90;;;;;;4987260;28;20478;-82
2023/09/24 08:06:10;;;;;;;12.00;8.45;;;12.80;99.90;;;;;;4987975;28;20042;-83
2023/09/24 08:08:37;;;;;;;13.35;8.93;;;12.90;99.90;;;;;;4970265;28;20449;-83
2023/09/24 08:11:02;;;;;;;10.45;8.55;;;13.00;99.90;;;;;;4969399;28;20062;-83
2023/09/24 08:13:33;;;;;;;10.02;8.60;;;13.10;99.90;;;;;;4969849;28;20071;-83
2023/09/24 08:15:59;;;;;;;14.90;8.95;;;13.00;99.90;;;;;;4987345;28;20762;-84
2023/09/24 08:18:25;;;;;;;12.25;8.77;;;13.10;99.90;;;;;;4988163;28;20062;-84
2023/09/24 08:20:53;;;;;;;10.40;8.13;;;13.20;99.90;;;;;;4970028;28;20454;-85
2023/09/24 08:23:20;;;;;;;11.48;8.30;;;13.20;99.90;;;;;;4954331;28;20122;-85
2023/09/24 08:25:45;;;;;;;12.13;8.57;;;13.30;99.90;;;;;;4987695;28;20051;-85
2023/09/24 08:28:13;;;;;;;10.13;8.25;;;13.40;99.90;;;;;;4970710;28;20050;-85
2023/09/24 08:30:39;;;;;;;10.75;8.20;;;13.50;99.90;;;;;;4988194;28;20050;-86
2023/09/24 08:33:07;;;;;;;10.98;8.00;;;13.60;99.90;;;;;;4970030;28;20052;-87
2023/09/24 08:35:32;;;;;;;9.18;7.40;;;13.70;99.90;;;;;;4954355;28;20136;-85
2023/09/24 08:37:58;;;;;;;10.23;7.85;;;13.70;99.90;;;;;;4987343;28;20074;-85
2023/09/24 08:40:28;;;;;;;8.63;6.55;;;13.80;99.90;;;;;;4969913;28;20124;-84
2023/09/24 08:42:56;;;;;;;9.18;6.82;;;14.20;99.90;;;;;;4970592;28;20050;-85
2023/09/24 08:45:26;;;;;;;10.13;7.25;;;14.00;99.90;;;;;;4970042;28;20153;-85
2023/09/24 08:47:52;;;;;;;7.97;6.97;;;14.00;99.90;;;;;;4970660;28;20050;-84
2023/09/24 08:50:19;;;;;;;8.13;6.55;;;14.10;99.90;;;;;;4987163;28;20046;-84
2023/09/24 08:52:45;;;;;;;10.75;7.05;;;14.20;99.90;;;;;;4986857;28;20173;-83
2023/09/24 08:55:13;;;;;;;10.65;7.00;;;14.30;99.90;;;;;;4954366;28;20455;-83
2023/09/24 08:57:40;;;;;;;9.82;6.35;;;14.30;99.90;;;;;;4969758;28;20158;-85
2023/09/24 09:00:09;;;;;;;17.20;7.35;;;14.50;99.90;;;;;;4970092;28;20089;-84
2023/09/24 09:02:35;;;;;;;8.27;6.20;;;14.40;99.90;;;;;;4987872;28;20592;-84
2023/09/24 09:05:04;;;;;;;10.30;6.15;;;14.60;99.90;;;;;;4970385;28;20039;-85
2023/09/24 09:07:30;;;;;;;10.77;6.35;;;15.00;99.90;;;;;;4987049;28;20039;-85
2023/09/24 09:10:04;;;;;;;10.95;5.25;;;14.80;99.90;;;;;;4969359;28;20089;-84
2023/09/24 09:12:30;;;;;;;8.77;5.30;;;14.90;99.90;;;;;;4987241;28;20112;-85
2023/09/24 09:14:57;;;;;;;6.10;4.50;;;14.90;99.90;;;;;;4969973;28;20058;-83
2023/09/24 09:17:38;;;;;;;6.78;4.38;;;15.00;99.90;;;;;;4987330;28;20549;-84
2023/09/24 09:20:04;;;;;;;6.97;4.17;;;15.00;99.90;;;;;;4970927;28;20497;-83
2023/09/24 09:22:32;;;;;;;8.15;5.13;;;15.10;99.90;;;;;;4990975;28;20461;-83
2023/09/24 09:25:02;;;;;;;8.00;4.72;;;15.20;99.90;;;;;;4972153;28;20050;-84
2023/09/24 09:27:46;;;;;;;6.32;4.53;;;15.30;99.90;;;;;;4973725;28;20540;-83
2023/09/24 09:30:15;;;;;;;8.18;4.93;;;15.30;99.90;;;;;;4973540;28;20478;-85
2023/09/24 09:32:44;;;;;;;10.00;4.30;;;15.40;99.90;;;;;;4974114;28;20791;-83
2023/09/24 09:35:11;;;;;;;6.70;3.92;;;15.40;99.90;;;;;;4973674;28;20137;-84
2023/09/24 09:37:41;;;;;;;7.43;4.35;;;15.60;99.90;;;;;;4973380;28;20065;-84
2023/09/24 09:40:11;;;;;;;9.00;4.40;;;15.60;99.90;;;;;;4955311;28;20465;-83
2023/09/24 09:42:38;;;;;;;5.72;3.70;;;15.60;99.90;;;;;;4987907;28;20054;-83
2023/09/24 09:45:08;;;;;;;6.50;4.22;;;15.70;99.90;;;;;;4987124;28;20066;-83
2023/09/24 09:47:43;;;;;;;6.97;4.13;;;15.70;99.90;;;;;;4989726;28;20114;-83
2023/09/24 09:50:11;;;;;;;5.43;3.72;;;15.90;99.90;;;;;;4987357;28;20042;-83
2023/09/24 09:52:43;;;;;;;7.95;4.47;;;16.00;99.90;;;;;;4988996;28;20081;-84
2023/09/24 09:55:09;;;;;;;6.93;4.20;;;16.00;99.90;;;;;;4989933;28;20560;-83
2023/09/24 09:57:37;;;;;;;7.25;3.63;;;16.10;99.90;;;;;;4972072;28;20126;-82
2023/09/24 10:00:10;;;;;;;7.70;3.47;;;16.10;99.90;;;;;;4972933;28;20062;-81
2023/09/24 10:02:38;;;;;;;6.47;3.92;;;16.20;99.90;;;;;;4971099;28;20890;-82
2023/09/24 10:05:06;;;;;;;4.93;3.17;;;16.60;99.90;;;;;;4990382;28;20126;-81
2023/09/24 10:07:39;;;;;;;4.53;3.28;;;16.30;99.90;;;;;;4973267;28;20232;-81
2023/09/24 10:10:34;;;;;;;5.10;3.83;;;16.30;99.90;;;;;;4988872;28;20049;-82
2023/09/24 10:13:02;;;;;;;4.65;3.08;;;16.40;99.90;;;;;;4951452;28;20046;-81
2023/09/24 10:15:30;;;;;;;4.03;3.25;;;16.50;99.90;;;;;;4970293;28;20089;-82
2023/09/24 10:18:11;;;;;;;5.70;2.88;;;16.50;99.90;;;;;;4995075;28;20594;-83
2023/09/24 10:20:48;;;;;;;5.45;2.95;;;16.40;99.90;;;;;;4988621;28;20113;-82
2023/09/24 10:23:29;;;;;;;6.85;3.10;;;16.70;99.90;;;;;;4989643;28;20046;-83
2023/09/24 10:25:59;;;;;;;5.47;2.80;;;16.50;99.90;;;;;;4988987;28;20074;-82
2023/09/24 10:28:48;;;;;;;6.90;2.75;;;16.60;99.90;;;;;;4972255;28;20050;-81
2023/09/24 10:31:17;;;;;;;6.43;2.55;;;16.70;99.90;;;;;;4971282;28;20050;-82
2023/09/24 10:33:59;;;;;;;4.32;2.30;;;16.80;99.90;;;;;;4987697;28;20054;-82
2023/09/24 10:36:29;;;;;;;4.90;1.83;;;16.90;99.90;;;;;;4988986;28;20046;-83
2023/09/24 10:39:04;;;;;;;3.60;2.25;;;17.00;99.90;;;;;;4988230;28;20057;-82
2023/09/24 10:41:32;;;;;;;4.15;2.05;;;17.10;99.90;;;;;;4969174;28;20058;-83
2023/09/24 10:44:26;;;;;;;5.35;2.20;;;17.40;99.90;;;;;;4989689;28;20038;-81
2023/09/24 10:46:53;;;;;;;5.95;2.05;;;17.30;99.90;;;;;;4969156;28;20466;-81
2023/09/24 10:49:24;;;;;;;3.03;1.75;;;17.40;99.90;;;;;;4989445;28;20420;-81
2023/09/24 10:51:58;;;;;;;3.28;1.80;;;17.40;99.90;;;;;;4975561;28;20050;-81
2023/09/24 10:54:23;;;;;;;3.60;1.70;;;17.50;99.90;;;;;;4983120;28;20122;-82
2023/09/24 10:56:49;;;;;;;3.42;1.63;;;17.60;99.90;;;;;;4968668;28;20074;-80
2023/09/24 10:59:15;;;;;;;3.78;1.50;;;17.80;99.90;;;;;;4971204;28;20053;-81
2023/09/24 11:01:44;;;;;;;4.40;1.77;;;17.60;99.90;;;;;;4985302;28;20196;-81
2023/09/24 11:04:10;;;;;;;3.30;1.52;;;17.70;99.90;;;;;;4984012;28;20050;-82
2023/09/24 11:06:36;;;;;;;3.80;1.60;;;17.70;99.90;;;;;;4984352;28;20041;-81
2023/09/24 11:09:20;;;;;;;3.55;1.60;;;18.10;99.90;;;;;;4982600;28;20409;-82
2023/09/24 11:11:46;;;;;;;4.00;1.70;;;18.20;99.90;;;;;;4986899;28;20121;-81
2023/09/24 11:14:23;;;;;;;3.38;1.70;;;17.90;99.90;;;;;;4987590;28;20054;-82
2023/09/24 11:16:53;;;;;;;2.97;1.52;;;18.00;99.90;;;;;;4978705;28;20110;-80
2023/09/24 11:19:52;;;;;;;3.85;1.40;;;17.80;99.90;;;;;;4988032;28;20066;-80
2023/09/24 11:22:27;;;;;;;3.50;1.60;;;17.90;99.90;;;;;;4948796;28;20189;-80
2023/09/24 11:25:09;;;;;;;4.20;1.50;;;17.90;99.90;;;;;;4978174;28;20050;-79
2023/09/24 11:27:58;;;;;;;3.17;1.53;;;18.00;99.90;;;;;;4969286;28;20054;-81
2023/09/24 11:30:34;;;;;;;2.38;1.23;;;18.00;99.90;;;;;;4947119;28;20347;-81
2023/09/24 11:33:10;;;;;;;3.70;1.33;;;18.10;99.90;;;;;;4984157;28;20090;-79
2023/09/24 11:35:37;;;;;;;2.88;1.38;;;18.20;99.90;;;;;;4987488;28;20085;-82
2023/09/24 11:38:06;;;;;;;4.75;1.60;;;18.20;99.90;;;;;;4966540;28;20046;-80
2023/09/24 11:40:41;;;;;;;3.42;1.45;;;18.20;99.90;;;;;;4982020;28;20049;-80
2023/09/24 11:43:16;;;;;;;4.07;1.48;;;18.20;99.90;;;;;;4987150;28;20046;-81
2023/09/24 11:45:42;;;;;;;2.22;1.33;;;18.20;99.90;;;;;;4987545;28;20042;-81
2023/09/24 11:48:22;;;;;;;3.95;1.42;;;18.30;99.90;;;;;;4987015;28;20149;-81
2023/09/24 11:50:51;;;;;;;3.75;1.48;;;18.40;99.90;;;;;;4969322;28;20084;-83
2023/09/24 11:53:22;;;;;;;3.45;1.20;;;18.50;99.90;;;;;;4987777;28;20039;-84
2023/09/24 11:55:49;;;;;;;2.47;1.47;;;18.50;99.90;;;;;;4985677;28;20053;-81
2023/09/24 11:58:17;;;;;;;4.28;1.33;;;18.70;99.90;;;;;;4986353;28;20125;-83
2023/09/24 12:00:46;;;;;;;5.85;1.67;;;18.50;99.90;;;;;;4982588;28;20082;-82
2023/09/24 12:03:12;;;;;;;3.35;1.40;;;18.60;99.90;;;;;;4985995;28;20181;-81
2023/09/24 12:05:40;;;;;;;4.47;1.52;;;18.60;99.90;;;;;;4986217;28;20077;-78
2023/09/24 12:08:06;;;;;;;3.90;1.50;;;18.60;99.90;;;;;;4986440;28;20054;-79
2023/09/24 12:10:36;;;;;;;3.78;1.40;;;18.60;99.90;;;;;;4982629;28;20042;-79
2023/09/24 12:13:05;;;;;;;3.00;1.42;;;18.60;99.90;;;;;;4987354;28;20046;-81
2023/09/24 12:15:34;;;;;;;2.65;1.17;;;18.70;99.90;;;;;;4985843;28;20046;-80
2023/09/24 12:18:03;;;;;;;2.85;1.38;;;18.70;99.90;;;;;;4984860;28;20067;-80
2023/09/24 12:20:28;;;;;;;3.05;1.20;;;18.70;99.90;;;;;;4977980;28;20568;-79
2023/09/24 12:22:54;;;;;;;4.03;1.55;;;18.80;99.90;;;;;;4985687;28;20058;-79
2023/09/24 12:25:23;;;;;;;2.65;1.58;;;18.80;99.90;;;;;;4966970;28;20176;-79
2023/09/24 12:27:49;;;;;;;4.55;1.40;;;18.80;99.90;;;;;;4968893;28;20061;-79
2023/09/24 12:30:14;;;;;;;3.28;1.30;;;19.00;99.90;;;;;;4972975;28;20046;-78
2023/09/24 12:32:40;;;;;;;2.65;1.30;;;19.10;99.90;;;;;;4986719;28;20133;-79
2023/09/24 12:35:13;;;;;;;2.13;1.15;;;19.10;99.90;;;;;;4983727;28;20046;-80
2023/09/24 12:37:39;;;;;;;4.60;1.50;;;19.00;99.90;;;;;;4983777;28;20034;-79
2023/09/24 12:40:07;;;;;;;3.70;1.50;;;19.00;99.90;;;;;;4985727;28;20042;-79
2023/09/24 12:42:34;;;;;;;3.13;1.30;;;18.90;99.90;;;;;;4984680;28;20722;-79
2023/09/24 12:45:01;;;;;;;3.60;1.73;;;18.80;99.90;;;;;;4986776;28;20042;-81
2023/09/24 12:47:28;;;;;;;3.35;1.33;;;18.70;99.90;;;;;;4968163;28;20141;-79
2023/09/24 12:49:57;;;;;;;3.38;1.23;;;18.60;99.90;;;;;;4985956;28;20046;-79